Time;durP1;ratioP1;P1;durP2;ratioP2;P2;SDS_P1;SDS_P2;PMS_P1;PMS_P2;Temp;Humidity;BMP_temperature;BMP_pressure;BME280_temperature;BME280_humidity;BME280_pressure;Samples;Min_cycle;Max_cycle;Signal;HPM_P1;HPM_P2
2022/05/07 00:02:06;;;;;;;5.70;5.20;;;12.10;99.90;13.00;97210.00;;;;5028801;28;20201;-67
2022/05/07 00:04:55;;;;;;;6.17;5.23;;;12.20;99.90;13.00;97204.00;;;;5029688;28;20208;-67
2022/05/07 00:07:43;;;;;;;4.57;4.10;;;12.20;99.90;12.90;97191.00;;;;5028429;28;20236;-67
2022/05/07 00:10:33;;;;;;;5.43;4.63;;;12.10;99.90;13.00;97198.00;;;;5028191;28;20205;-67
2022/05/07 00:13:22;;;;;;;5.47;4.47;;;12.10;99.90;12.70;97176.00;;;;5028771;28;20247;-67
2022/05/07 00:19:17;;;;;;;5.47;4.97;;;12.00;99.90;12.50;97165.00;;;;5015350;28;20680;-67
2022/05/07 00:22:06;;;;;;;6.30;4.83;;;11.90;99.90;12.60;97163.00;;;;5017333;28;20208;-67
2022/05/07 00:24:55;;;;;;;5.93;5.33;;;11.90;99.90;12.80;97171.00;;;;5016852;28;20202;-67
2022/05/07 00:27:45;;;;;;;10.90;5.67;;;11.90;99.90;12.80;97163.00;;;;5017285;28;20607;-67
2022/05/07 00:30:34;;;;;;;6.57;4.90;;;11.90;99.90;12.80;97164.00;;;;5027792;28;20205;-67
2022/05/07 00:33:22;;;;;;;5.83;5.33;;;11.90;99.90;12.70;97153.00;;;;5016694;28;20233;-67
2022/05/07 00:36:11;;;;;;;5.53;5.03;;;11.90;99.90;12.70;97154.00;;;;5029426;28;20208;-67
2022/05/07 00:39:00;;;;;;;5.23;4.83;;;11.90;99.90;12.80;97149.00;;;;5028905;28;20202;-67
2022/05/07 00:41:49;;;;;;;7.03;5.23;;;11.90;99.90;12.90;97147.00;;;;5028084;28;20208;-67
2022/05/07 00:44:39;;;;;;;7.60;7.00;;;11.90;99.90;12.80;97144.00;;;;5020572;28;20216;-67
2022/05/07 00:47:31;;;;;;;4.77;4.33;;;11.90;99.90;12.80;97161.00;;;;5017434;28;20240;-67
2022/05/07 00:53:27;;;;;;;5.17;4.63;;;11.90;99.90;12.90;97159.00;;;;5028972;28;20220;-67
2022/05/07 00:56:16;;;;;;;4.80;4.40;;;11.90;99.90;12.90;97166.00;;;;5031170;28;20209;-67
2022/05/07 00:59:05;;;;;;;5.07;4.50;;;11.90;99.90;12.90;97172.00;;;;5033245;28;20208;-67
2022/05/07 01:01:55;;;;;;;5.97;5.33;;;11.90;99.90;12.90;97158.00;;;;5033638;28;20243;-67
2022/05/07 01:04:44;;;;;;;5.00;4.50;;;12.00;99.90;12.90;97166.00;;;;5031741;28;20209;-67
2022/05/07 01:07:34;;;;;;;5.50;5.00;;;11.90;99.90;12.90;97168.00;;;;5031135;28;20237;-67
2022/05/07 01:10:24;;;;;;;5.80;5.13;;;12.00;99.90;12.90;97163.00;;;;5032278;28;20197;-67
2022/05/07 01:13:13;;;;;;;5.47;5.00;;;11.90;99.90;12.90;97159.00;;;;5031219;28;20217;-67
2022/05/07 01:16:02;;;;;;;5.43;4.73;;;11.90;99.90;12.90;97165.00;;;;5031555;28;20197;-68
2022/05/07 01:18:52;;;;;;;4.40;4.00;;;12.00;99.90;12.80;97165.00;;;;5022763;28;20677;-67
2022/05/07 01:21:42;;;;;;;7.30;4.97;;;11.90;99.90;12.90;97169.00;;;;5022409;28;20204;-67
2022/05/07 01:24:31;;;;;;;5.53;5.13;;;11.90;99.90;12.60;97167.00;;;;5031428;28;20581;-67
2022/05/07 01:27:19;;;;;;;5.07;4.57;;;11.90;99.90;12.40;97156.00;;;;5017560;28;20237;-67
2022/05/07 01:30:10;;;;;;;6.10;4.47;;;11.80;99.90;12.60;97165.00;;;;5030247;28;20197;-67
2022/05/07 01:32:58;;;;;;;6.30;5.80;;;11.80;99.90;12.60;97167.00;;;;5018004;28;20209;-67
2022/05/07 01:35:47;;;;;;;5.87;5.27;;;11.90;99.90;12.70;97168.00;;;;5020471;28;20238;-67
2022/05/07 01:38:37;;;;;;;5.77;5.27;;;11.90;99.90;12.70;97167.00;;;;5015464;28;20209;-67
2022/05/07 01:41:26;;;;;;;5.13;4.60;;;11.80;99.90;12.60;97162.00;;;;5033542;28;20205;-67
2022/05/07 01:44:15;;;;;;;5.87;5.20;;;11.80;99.90;12.50;97164.00;;;;5020517;28;20622;-67
2022/05/07 01:50:10;;;;;;;6.77;6.17;;;11.80;99.90;12.70;97171.00;;;;5030838;28;20208;-67
2022/05/07 01:52:59;;;;;;;7.97;5.30;;;11.80;99.90;12.70;97170.00;;;;5033392;28;20209;-67
2022/05/07 01:55:49;;;;;;;5.17;4.77;;;11.80;99.90;12.80;97166.00;;;;5031631;28;20225;-67
2022/05/07 01:58:38;;;;;;;5.83;4.40;;;11.80;99.90;12.30;97148.00;;;;5029061;28;20872;-67
2022/05/07 02:01:27;;;;;;;5.03;4.53;;;11.80;99.90;12.30;97150.00;;;;5025779;28;20961;-67
2022/05/07 02:04:15;;;;;;;5.23;4.73;;;11.70;99.90;12.30;97149.00;;;;5031096;28;20205;-67
2022/05/07 02:07:04;;;;;;;5.83;4.80;;;11.70;99.90;12.30;97158.00;;;;5028763;28;20692;-67
2022/05/07 02:09:53;;;;;;;5.20;4.70;;;11.70;99.90;12.40;97147.00;;;;5030948;28;20221;-67
2022/05/07 02:12:43;;;;;;;4.90;4.50;;;11.70;99.90;12.30;97130.00;;;;5031471;28;20201;-67
2022/05/07 02:15:32;;;;;;;4.97;4.57;;;11.70;99.90;12.50;97133.00;;;;5015717;28;20601;-67
2022/05/07 02:18:21;;;;;;;7.37;5.50;;;11.70;99.90;12.50;97128.00;;;;5027711;28;20232;-67
2022/05/07 02:21:10;;;;;;;5.00;4.37;;;11.60;99.90;12.50;97138.00;;;;5030001;28;20210;-67
2022/05/07 02:23:58;;;;;;;5.27;4.77;;;11.70;99.90;12.20;97130.00;;;;5031792;28;20703;-67
2022/05/07 02:26:47;;;;;;;6.23;4.83;;;11.60;99.90;12.40;97123.00;;;;5021077;28;20229;-67
2022/05/07 02:29:37;;;;;;;4.77;4.37;;;11.60;99.90;12.60;97127.00;;;;5029592;28;20201;-67
2022/05/07 02:32:26;;;;;;;5.93;4.37;;;11.60;99.90;12.70;97124.00;;;;5031002;28;20213;-67
2022/05/07 02:35:15;;;;;;;5.70;4.73;;;11.60;99.90;12.70;97127.00;;;;5023195;28;20701;-67
2022/05/07 02:38:03;;;;;;;7.57;4.53;;;11.70;99.90;12.50;97131.00;;;;5030386;28;20233;-68
2022/05/07 02:43:58;;;;;;;4.80;4.40;;;11.70;99.90;12.70;97120.00;;;;5032145;28;20208;-68
2022/05/07 02:46:48;;;;;;;5.63;4.67;;;11.70;99.90;12.60;97125.00;;;;5030697;28;20592;-68
2022/05/07 02:49:37;;;;;;;6.70;4.80;;;11.70;99.90;12.60;97130.00;;;;5030872;28;20205;-68
2022/05/07 02:52:26;;;;;;;6.70;4.40;;;11.60;99.90;12.60;97132.00;;;;5031632;28;20209;-68
2022/05/07 02:55:15;;;;;;;4.43;4.03;;;11.70;99.90;12.60;97131.00;;;;5031212;28;20229;-67
2022/05/07 02:58:03;;;;;;;6.03;4.93;;;11.60;99.90;12.40;97123.00;;;;5030386;28;20225;-67
2022/05/07 03:00:52;;;;;;;6.13;4.77;;;11.70;99.90;12.40;97127.00;;;;5030575;28;20209;-68
2022/05/07 03:03:42;;;;;;;5.87;4.83;;;11.70;99.90;12.40;97128.00;;;;5031182;28;20553;-68
2022/05/07 03:06:31;;;;;;;4.37;3.97;;;11.60;99.90;12.50;97125.00;;;;5028371;28;20229;-68
2022/05/07 03:09:20;;;;;;;6.30;4.80;;;11.70;99.90;12.50;97117.00;;;;5031863;28;20201;-68
2022/05/07 03:12:10;;;;;;;8.03;5.57;;;11.60;99.90;12.20;97118.00;;;;5019767;28;20216;-68
2022/05/07 03:15:00;;;;;;;5.27;4.87;;;11.60;99.90;12.20;97111.00;;;;5030610;28;20240;-68
2022/05/07 03:17:48;;;;;;;5.60;4.50;;;11.50;99.90;12.30;97114.00;;;;5027960;28;20234;-68
2022/05/07 03:20:40;;;;;;;6.40;4.93;;;11.50;99.90;12.30;97115.00;;;;5022742;28;20762;-68
2022/05/07 03:23:29;;;;;;;7.10;5.03;;;11.50;99.90;12.60;97116.00;;;;5024726;28;20241;-68
2022/05/07 03:26:17;;;;;;;6.63;4.70;;;11.50;99.90;12.70;97122.00;;;;5023031;28;20707;-68
2022/05/07 03:29:06;;;;;;;7.37;4.97;;;11.60;99.90;12.60;97115.00;;;;5030301;28;20205;-68
2022/05/07 03:31:55;;;;;;;4.47;4.07;;;11.60;99.90;12.60;97123.00;;;;5029627;28;20190;-68
2022/05/07 03:34:44;;;;;;;6.33;4.60;;;11.60;99.90;12.60;97110.00;;;;5019251;28;20976;-67
2022/05/07 03:37:34;;;;;;;6.10;4.63;;;11.60;99.90;12.50;97111.00;;;;5016019;28;20697;-68
2022/05/07 03:40:23;;;;;;;5.17;4.73;;;11.60;99.90;12.50;97116.00;;;;5029545;28;20212;-68
2022/05/07 03:43:11;;;;;;;6.30;4.23;;;11.50;99.90;12.60;97114.00;;;;5028405;28;20201;-67
2022/05/07 03:46:00;;;;;;;5.33;4.77;;;11.60;99.90;12.60;97115.00;;;;5021471;28;20198;-68
2022/05/07 03:48:49;;;;;;;4.10;3.70;;;11.50;99.90;12.70;97126.00;;;;5029214;28;20198;-68
2022/05/07 03:54:43;;;;;;;4.50;4.10;;;11.50;99.90;12.60;97117.00;;;;5029697;28;20212;-68
2022/05/07 03:57:31;;;;;;;4.90;4.40;;;11.50;99.90;12.60;97120.00;;;;5028236;28;20665;-68
2022/05/07 04:00:20;;;;;;;9.50;7.73;;;11.50;99.90;12.80;97123.00;;;;5029416;28;20205;-68
2022/05/07 04:03:09;;;;;;;5.13;4.67;;;11.60;99.90;12.70;97125.00;;;;5027449;28;20691;-68
2022/05/07 04:05:59;;;;;;;6.87;4.03;;;11.60;99.90;12.60;97124.00;;;;5017303;28;20586;-67
2022/05/07 04:08:47;;;;;;;5.27;4.87;;;11.60;99.90;12.50;97122.00;;;;5029276;28;20211;-68
2022/05/07 04:11:37;;;;;;;5.70;5.23;;;11.60;99.90;12.60;97123.00;;;;5027703;28;20224;-67
2022/05/07 04:14:26;;;;;;;5.13;4.63;;;11.60;99.90;12.70;97132.00;;;;5023997;28;20216;-67
2022/05/07 04:17:15;;;;;;;5.50;5.00;;;11.60;99.90;12.80;97136.00;;;;5026970;28;20232;-68
2022/05/07 04:20:04;;;;;;;5.23;4.77;;;11.60;99.90;12.70;97136.00;;;;5022132;28;20209;-67
2022/05/07 04:22:53;;;;;;;5.00;4.60;;;11.70;99.90;12.50;97126.00;;;;5016833;28;20212;-68
2022/05/07 04:25:42;;;;;;;5.40;5.00;;;11.60;99.90;12.50;97132.00;;;;5028838;28;20232;-68
2022/05/07 04:28:32;;;;;;;5.73;4.33;;;11.60;99.90;12.70;97127.00;;;;5025178;28;20660;-67
2022/05/07 04:31:21;;;;;;;5.13;4.73;;;11.70;99.90;12.70;97137.00;;;;5022505;28;20272;-67
2022/05/07 04:34:12;;;;;;;5.97;4.93;;;11.60;99.90;12.80;97143.00;;;;5016150;28;20921;-68
2022/05/07 04:37:01;;;;;;;5.20;4.70;;;11.60;99.90;12.80;97149.00;;;;5018494;28;20228;-68
2022/05/07 04:39:50;;;;;;;6.00;5.40;;;11.60;99.90;12.90;97149.00;;;;5024033;28;20580;-68
2022/05/07 04:42:38;;;;;;;5.33;4.83;;;11.70;99.90;12.90;97161.00;;;;5028584;28;20213;-67
2022/05/07 04:45:29;;;;;;;8.50;4.47;;;11.70;99.90;12.90;97163.00;;;;5029372;28;20656;-67
2022/05/07 04:48:17;;;;;;;6.03;5.43;;;11.70;99.90;12.90;97158.00;;;;5016520;28;20226;-68
2022/05/07 04:51:06;;;;;;;11.20;5.50;;;11.80;99.90;12.90;97153.00;;;;5028009;28;20212;-68
2022/05/07 04:54:08;;;;;;;7.37;4.60;;;11.80;99.90;12.80;97161.00;;;;5028880;28;20209;-68
2022/05/07 04:56:57;;;;;;;5.20;4.73;;;11.70;99.90;12.70;97164.00;;;;5028165;28;20237;-68
2022/05/07 04:59:45;;;;;;;7.47;4.37;;;11.80;99.90;12.70;97169.00;;;;5017704;28;20668;-68
2022/05/07 05:02:35;;;;;;;5.00;4.60;;;11.70;99.90;12.40;97167.00;;;;5026553;28;20582;-68
2022/05/07 05:05:25;;;;;;;4.87;4.07;;;11.70;99.90;12.50;97173.00;;;;5026673;28;20194;-68
2022/05/07 05:08:14;;;;;;;5.80;5.20;;;11.60;99.90;12.40;97170.00;;;;5026568;28;20236;-68
2022/05/07 05:11:02;;;;;;;7.77;6.70;;;11.60;99.90;12.40;97170.00;;;;5024360;28;20201;-68
2022/05/07 05:13:51;;;;;;;8.10;6.23;;;11.60;99.90;12.50;97159.00;;;;5026053;28;20715;-68
2022/05/07 05:16:40;;;;;;;7.17;6.57;;;11.60;99.90;12.60;97169.00;;;;5022963;28;20225;-68
2022/05/07 05:19:30;;;;;;;6.03;5.50;;;11.70;99.90;12.60;97168.00;;;;5025778;28;20212;-68
2022/05/07 05:22:19;;;;;;;5.67;5.07;;;11.70;99.90;12.70;97172.00;;;;5025002;28;20707;-68
2022/05/07 05:25:08;;;;;;;9.20;6.10;;;11.70;99.90;12.80;97180.00;;;;5028517;28;20197;-68
2022/05/07 05:27:57;;;;;;;6.70;5.37;;;11.60;99.90;12.80;97176.00;;;;5018016;28;20615;-68
2022/05/07 05:30:51;;;;;;;5.57;4.97;;;11.70;99.90;12.70;97171.00;;;;5027783;28;20205;-67
2022/05/07 05:33:39;;;;;;;5.30;4.87;;;11.70;99.90;12.80;97173.00;;;;5026943;28;20212;-68
2022/05/07 05:36:30;;;;;;;6.23;4.80;;;11.70;99.90;12.90;97171.00;;;;5023676;28;20232;-68
2022/05/07 05:39:19;;;;;;;5.33;4.83;;;11.70;99.90;12.90;97180.00;;;;5023390;28;20208;-68
2022/05/07 05:42:09;;;;;;;5.47;4.97;;;11.80;99.90;12.90;97184.00;;;;5025557;28;20220;-68
2022/05/07 05:44:57;;;;;;;5.73;5.13;;;11.80;99.90;13.00;97192.00;;;;5020962;28;20672;-67
2022/05/07 05:47:47;;;;;;;5.50;5.00;;;11.80;99.90;12.90;97183.00;;;;5031329;28;20549;-68
2022/05/07 05:50:38;;;;;;;5.57;4.67;;;11.80;99.90;12.60;97182.00;;;;5031123;28;20209;-68
2022/05/07 05:53:28;;;;;;;6.00;5.40;;;11.80;99.90;12.60;97183.00;;;;5018204;28;20193;-68
2022/05/07 05:56:17;;;;;;;6.60;5.73;;;11.80;99.90;12.90;97186.00;;;;5030301;28;20226;-68
2022/05/07 05:59:06;;;;;;;5.53;4.70;;;11.80;99.90;13.00;97201.00;;;;5023168;28;20204;-68
2022/05/07 06:01:55;;;;;;;6.37;5.07;;;11.80;99.90;13.20;97189.00;;;;5031575;28;20201;-68
2022/05/07 06:04:43;;;;;;;6.10;5.57;;;11.90;99.90;13.20;97191.00;;;;5031968;28;20205;-69
2022/05/07 06:07:32;;;;;;;5.73;5.23;;;12.00;99.90;13.10;97192.00;;;;5029167;28;20603;-70
2022/05/07 06:10:22;;;;;;;5.87;5.30;;;12.00;99.90;13.00;97193.00;;;;5026487;28;20198;-70
2022/05/07 06:13:11;;;;;;;6.43;5.67;;;11.90;99.90;13.00;97192.00;;;;5031309;28;20204;-67
2022/05/07 06:16:00;;;;;;;7.87;5.73;;;12.00;99.90;13.10;97196.00;;;;5030880;28;20687;-68
2022/05/07 06:18:49;;;;;;;6.07;5.47;;;12.00;99.90;13.10;97191.00;;;;5031383;28;20624;-68
2022/05/07 06:21:38;;;;;;;5.57;5.03;;;12.00;99.90;13.20;97191.00;;;;5018717;28;20193;-68
2022/05/07 06:27:34;;;;;;;6.20;5.60;;;12.10;99.90;13.40;97190.00;;;;5018918;28;20225;-68
2022/05/07 06:30:23;;;;;;;7.50;6.33;;;12.10;99.90;13.40;97192.00;;;;5028995;28;20202;-68
2022/05/07 06:33:12;;;;;;;6.43;5.83;;;12.20;99.90;13.40;97194.00;;;;5022948;28;20672;-68
2022/05/07 06:36:01;;;;;;;7.20;6.00;;;12.20;99.90;13.30;97187.00;;;;5030496;28;20205;-68
2022/05/07 06:38:50;;;;;;;7.00;6.30;;;12.30;99.90;13.20;97195.00;;;;5020189;28;20195;-68
2022/05/07 06:41:40;;;;;;;6.63;5.97;;;12.30;99.90;13.30;97189.00;;;;5017130;28;20216;-68
2022/05/07 06:44:30;;;;;;;7.10;6.40;;;12.30;99.90;13.40;97188.00;;;;5024648;28;20209;-68
2022/05/07 06:47:19;;;;;;;7.00;5.43;;;12.30;99.90;13.50;97195.00;;;;5021294;28;20627;-68
2022/05/07 06:50:09;;;;;;;7.40;6.10;;;12.30;99.90;13.50;97197.00;;;;5030201;28;20210;-68
2022/05/07 06:52:58;;;;;;;5.93;5.43;;;12.40;99.90;13.50;97195.00;;;;5026549;28;20205;-68
2022/05/07 06:55:56;;;;;;;6.83;5.70;;;12.40;99.90;13.50;97189.00;;;;5020504;28;20686;-68
2022/05/07 06:58:45;;;;;;;5.87;5.37;;;12.40;99.90;13.50;97186.00;;;;5025721;28;20209;-68
2022/05/07 07:01:35;;;;;;;6.60;6.00;;;12.40;99.90;13.60;97186.00;;;;5028834;28;20590;-68
2022/05/07 07:04:24;;;;;;;7.20;6.07;;;12.50;99.90;13.40;97178.00;;;;5020992;28;20564;-68
2022/05/07 07:07:13;;;;;;;14.40;6.83;;;12.50;99.90;13.40;97180.00;;;;5017173;28;20261;-68
2022/05/07 07:10:01;;;;;;;6.80;6.20;;;12.40;99.90;13.60;97181.00;;;;5022291;28;20198;-68
2022/05/07 07:12:50;;;;;;;5.67;5.17;;;12.50;99.90;13.80;97179.00;;;;5022365;28;20205;-68
2022/05/07 07:15:40;;;;;;;6.70;6.07;;;12.50;99.90;13.90;97187.00;;;;5024985;28;20209;-68
2022/05/07 07:18:31;;;;;;;8.53;5.70;;;12.60;99.90;13.90;97180.00;;;;5025587;28;20228;-68
2022/05/07 07:21:20;;;;;;;6.03;5.43;;;12.60;99.90;13.90;97171.00;;;;5029438;28;20217;-68
2022/05/07 07:24:08;;;;;;;8.07;5.97;;;12.60;99.90;14.00;97182.00;;;;5022356;28;20201;-68
2022/05/07 07:26:57;;;;;;;6.10;5.60;;;12.70;99.90;14.20;97182.00;;;;5022811;28;20229;-68
2022/05/07 07:29:47;;;;;;;6.67;5.47;;;12.80;99.90;14.30;97186.00;;;;5025032;28;20189;-68
2022/05/07 07:32:36;;;;;;;6.43;5.83;;;12.80;99.90;14.40;97193.00;;;;5026445;28;20197;-68
2022/05/07 07:35:26;;;;;;;6.00;5.50;;;12.90;99.90;14.60;97188.00;;;;5014698;28;20201;-68
2022/05/07 07:38:15;;;;;;;6.78;6.18;;;13.10;99.90;14.60;97196.00;;;;5018013;28;20407;-68
2022/05/07 07:41:04;;;;;;;7.28;6.57;;;12.80;99.90;14.60;97193.00;;;;5026003;28;20787;-68
2022/05/07 07:43:53;;;;;;;6.00;5.50;;;13.20;99.90;14.60;97195.00;;;;5021315;28;20898;-68
2022/05/07 07:49:49;;;;;;;6.38;5.82;;;13.40;99.90;14.50;97204.00;;;;5016494;28;20894;-68
2022/05/07 07:52:39;;;;;;;6.20;5.60;;;13.50;99.90;14.70;97205.00;;;;5029307;28;20622;-68
2022/05/07 07:55:28;;;;;;;6.10;5.50;;;13.40;99.90;14.70;97207.00;;;;5021673;28;20211;-68
2022/05/07 07:58:18;;;;;;;5.30;4.90;;;13.50;99.90;14.80;97205.00;;;;5013602;28;20225;-68
2022/05/07 08:01:07;;;;;;;7.80;7.10;;;13.30;99.90;14.90;97201.00;;;;5019311;28;20396;-68
2022/05/07 08:03:55;;;;;;;8.07;7.30;;;13.60;99.90;15.00;97203.00;;;;5025749;28;20399;-68
2022/05/07 08:11:39;;;;;;;7.55;6.82;;;13.70;99.90;15.00;97204.00;;;;5026699;28;20420;-68
2022/05/07 08:13:03;;;;;;;7.50;6.13;;;13.80;99.90;15.20;97203.00;;;;5017434;28;20427;-68
2022/05/07 08:15:51;;;;;;;7.13;6.43;;;14.00;99.90;15.40;97209.00;;;;5018411;28;20405;-68
2022/05/07 08:18:42;;;;;;;7.40;6.70;;;14.00;99.90;15.30;97206.00;;;;5019516;28;20498;-68
2022/05/07 08:21:31;;;;;;;6.88;6.28;;;14.10;99.90;15.20;97214.00;;;;5022944;28;20395;-69
2022/05/07 08:24:20;;;;;;;6.80;5.53;;;14.10;99.90;14.70;97208.00;;;;5021324;28;20387;-68
2022/05/07 08:27:10;;;;;;;7.10;5.78;;;14.10;99.90;14.80;97202.00;;;;5011099;28;20408;-68
2022/05/07 08:29:59;;;;;;;6.80;5.30;;;13.90;99.90;14.90;97202.00;;;;5021538;28;20202;-68
2022/05/07 08:32:48;;;;;;;6.30;4.70;;;13.90;99.90;14.40;97201.00;;;;5029534;28;20201;-68
2022/05/07 08:35:37;;;;;;;5.57;5.07;;;13.80;99.90;14.70;97199.00;;;;5020470;28;20197;-69
2022/05/07 08:38:26;;;;;;;5.27;4.77;;;13.70;99.90;15.10;97206.00;;;;5056421;22;20545;-67
2022/05/07 08:41:15;;;;;;;6.03;5.43;;;13.80;99.90;15.20;97205.00;;;;5054989;28;20207;-67
2022/05/07 08:44:06;;;;;;;6.32;5.70;;;14.00;99.90;15.00;97206.00;;;;5063209;28;20751;-68
2022/05/07 08:46:54;;;;;;;7.55;5.90;;;13.90;99.90;15.10;97198.00;;;;5069521;28;20393;-68
2022/05/07 08:49:43;;;;;;;6.20;5.60;;;14.00;99.90;14.80;97192.00;;;;5061649;28;20230;-68
2022/05/07 08:52:32;;;;;;;6.97;6.30;;;13.90;99.90;15.10;97196.00;;;;5061913;28;20208;-68
2022/05/07 08:55:22;;;;;;;5.97;5.37;;;13.90;99.90;15.20;97193.00;;;;5053528;28;20196;-68
2022/05/07 08:58:11;;;;;;;6.75;6.07;;;14.10;99.90;15.40;97198.00;;;;5049016;28;20414;-68
2022/05/07 09:01:02;;;;;;;5.77;5.20;;;14.10;99.90;15.50;97205.00;;;;5049412;28;20390;-68
2022/05/07 09:03:52;;;;;;;5.00;4.50;;;14.20;99.90;15.60;97211.00;;;;5059014;28;20200;-68
2022/05/07 09:06:41;;;;;;;5.33;4.83;;;14.20;99.90;15.50;97207.00;;;;5048159;28;20664;-68
2022/05/07 09:09:31;;;;;;;6.65;6.00;;;14.30;99.90;15.50;97204.00;;;;5048418;28;20402;-69
2022/05/07 09:12:25;;;;;;;5.97;5.30;;;14.30;99.90;15.60;97205.00;;;;5051520;28;20205;-68
2022/05/07 09:15:14;;;;;;;7.25;6.20;;;14.50;99.90;15.70;97209.00;;;;5062399;28;20400;-68
2022/05/07 09:18:14;;;;;;;6.30;5.72;;;14.40;99.90;15.50;97199.00;;;;5067045;28;20413;-67
2022/05/07 09:21:19;;;;;;;5.73;5.13;;;14.30;99.90;15.80;97202.00;;;;5066157;28;20710;-68
2022/05/07 09:24:08;;;;;;;5.83;5.20;;;14.40;99.90;15.70;97208.00;;;;5067176;28;20199;-68
2022/05/07 09:26:59;;;;;;;5.47;4.97;;;14.40;99.90;16.10;97198.00;;;;5060555;28;20565;-68
2022/05/07 09:29:48;;;;;;;6.32;5.78;;;14.60;99.90;16.00;97201.00;;;;5060114;28;21044;-68
2022/05/07 09:32:39;;;;;;;4.87;4.37;;;14.50;99.90;16.30;97201.00;;;;5055604;28;20200;-68
2022/05/07 09:35:49;;;;;;;6.28;5.68;;;14.60;99.90;16.20;97212.00;;;;5065270;28;20388;-68
2022/05/07 09:38:38;;;;;;;5.88;5.15;;;14.80;99.90;16.10;97208.00;;;;5055851;28;20907;-67
2022/05/07 09:41:27;;;;;;;5.88;5.38;;;14.80;99.90;16.10;97213.00;;;;5071446;28;20388;-68
2022/05/07 09:44:15;;;;;;;6.03;5.33;;;14.80;99.90;16.10;97223.00;;;;5071514;28;20590;-67
2022/05/07 09:47:05;;;;;;;6.33;5.73;;;14.60;99.90;15.90;97211.00;;;;5071052;28;20943;-68
2022/05/07 09:59:17;;;;;;;6.28;5.68;;;14.30;99.90;15.40;97212.00;;;;5069313;28;20404;-67
2022/05/07 10:02:28;;;;;;;6.35;5.85;;;14.30;99.90;15.50;97203.00;;;;5070580;28;20391;-67
2022/05/07 10:05:56;;;;;;;7.27;5.03;;;14.30;99.90;15.40;97204.00;;;;5083020;28;20571;-68
2022/05/07 10:09:04;;;;;;;6.10;4.80;;;14.30;99.90;15.40;97198.00;;;;5069795;28;20230;-68
2022/05/07 10:11:56;;;;;;;5.90;5.40;;;14.40;99.90;15.40;97201.00;;;;5081611;28;20398;-67
2022/05/07 10:14:45;;;;;;;6.50;6.00;;;14.20;99.90;15.30;97202.00;;;;5090341;28;20401;-67
2022/05/07 10:17:35;;;;;;;6.75;5.85;;;14.20;99.90;15.30;97199.00;;;;5071083;28;20914;-67
2022/05/07 10:20:24;;;;;;;6.40;5.90;;;14.20;99.90;15.40;97196.00;;;;5083919;28;20463;-68
2022/05/07 10:23:14;;;;;;;6.33;5.70;;;14.20;99.90;15.70;97194.00;;;;5080297;28;20203;-68
2022/05/07 10:26:04;;;;;;;6.15;5.55;;;14.20;99.90;15.60;97202.00;;;;5085137;28;20391;-68
2022/05/07 10:28:53;;;;;;;6.40;5.90;;;14.30;99.90;15.70;97200.00;;;;5082472;28;20390;-68
2022/05/07 10:31:46;;;;;;;8.07;6.97;;;14.30;99.90;15.70;97202.00;;;;5077922;28;20606;-68
2022/05/07 10:34:34;;;;;;;7.75;6.45;;;14.30;99.90;15.80;97196.00;;;;5075919;28;20415;-67
2022/05/07 10:37:23;;;;;;;6.33;5.73;;;14.50;99.90;15.90;97204.00;;;;5085902;28;20253;-68
2022/05/07 10:40:13;;;;;;;9.67;6.70;;;14.50;99.90;15.90;97196.00;;;;5057580;28;20236;-68
2022/05/07 10:43:05;;;;;;;8.77;6.77;;;14.50;99.90;15.90;97198.00;;;;5050951;28;20263;-67
2022/05/07 10:45:56;;;;;;;6.77;6.07;;;14.50;99.90;15.90;97189.00;;;;5051025;28;20213;-68
2022/05/07 10:48:46;;;;;;;7.30;5.87;;;14.50;99.90;16.00;97194.00;;;;5048801;28;20221;-68
2022/05/07 10:51:37;;;;;;;6.47;5.87;;;14.50;99.90;15.60;97190.00;;;;5051332;28;20200;-68
2022/05/07 10:54:28;;;;;;;6.73;5.13;;;14.60;99.90;15.60;97183.00;;;;5031096;28;20641;-68
2022/05/07 10:57:17;;;;;;;6.93;6.23;;;14.50;99.90;15.70;97189.00;;;;5046394;28;20204;-67
2022/05/07 11:00:13;;;;;;;6.40;5.87;;;14.50;99.90;15.90;97179.00;;;;5050942;28;20236;-68
2022/05/07 11:03:02;;;;;;;6.43;5.70;;;14.50;99.90;15.90;97181.00;;;;5049420;28;20214;-68
2022/05/07 11:05:51;;;;;;;8.00;6.93;;;14.60;99.90;15.90;97178.00;;;;5044267;28;20320;-68
2022/05/07 11:08:50;;;;;;;7.87;7.13;;;14.60;99.90;16.00;97173.00;;;;5030089;28;20225;-68
2022/05/07 11:11:44;;;;;;;6.20;5.60;;;14.70;99.90;15.50;97181.00;;;;5042338;28;20189;-67
2022/05/07 11:14:35;;;;;;;5.30;4.80;;;14.60;99.90;15.70;97185.00;;;;5042505;28;20213;-68
2022/05/07 11:17:34;;;;;;;5.83;5.23;;;14.60;99.90;15.70;97186.00;;;;5044570;28;20216;-67
2022/05/07 11:20:31;;;;;;;5.50;4.97;;;14.60;99.90;15.70;97184.00;;;;5044266;28;20239;-68
2022/05/07 11:23:20;;;;;;;6.17;5.67;;;14.50;99.90;16.00;97187.00;;;;5042228;28;20225;-68
2022/05/07 11:26:16;;;;;;;11.17;5.37;;;14.60;99.90;16.10;97184.00;;;;5044186;28;20209;-68
2022/05/07 11:29:08;;;;;;;6.13;5.63;;;14.60;99.90;16.00;97183.00;;;;5057810;28;20224;-68
2022/05/07 11:31:59;;;;;;;5.63;5.13;;;14.70;99.90;16.10;97183.00;;;;5058241;28;20199;-67
2022/05/07 11:34:56;;;;;;;5.90;4.57;;;14.60;99.90;16.10;97180.00;;;;5064011;28;20215;-68
2022/05/07 11:37:46;;;;;;;3.97;3.67;;;14.70;99.90;16.00;97188.00;;;;5052580;28;20714;-68
2022/05/07 11:40:35;;;;;;;4.47;4.07;;;14.70;99.90;15.90;97185.00;;;;5028684;28;20235;-68
2022/05/07 11:46:30;;;;;;;5.33;4.83;;;14.60;99.90;16.00;97187.00;;;;5036441;28;20691;-68
2022/05/07 11:49:30;;;;;;;5.13;4.57;;;14.60;99.90;16.00;97187.00;;;;5030421;28;20244;-68
2022/05/07 11:52:28;;;;;;;6.00;5.30;;;14.60;99.90;15.90;97185.00;;;;5049201;28;20204;-68
2022/05/07 11:55:18;;;;;;;7.13;6.23;;;14.60;99.90;15.70;97183.00;;;;5054611;28;20196;-68
2022/05/07 11:58:16;;;;;;;5.43;4.93;;;14.60;99.90;15.70;97187.00;;;;5057989;28;20196;-68
2022/05/07 12:01:06;;;;;;;6.83;6.23;;;14.50;99.90;15.60;97188.00;;;;5044785;28;20276;-68
2022/05/07 12:03:55;;;;;;;5.87;5.20;;;14.50;99.90;15.40;97187.00;;;;5042575;28;20250;-68
2022/05/07 12:06:54;;;;;;;5.33;4.83;;;14.50;99.90;15.40;97183.00;;;;5046790;28;20193;-67
2022/05/07 12:09:44;;;;;;;6.43;5.80;;;14.40;99.90;15.50;97184.00;;;;5031446;28;20229;-69
2022/05/07 12:12:32;;;;;;;6.70;5.57;;;14.40;99.90;15.60;97188.00;;;;5045286;28;20201;-68
2022/05/07 12:18:24;;;;;;;5.43;5.03;;;14.40;99.90;15.40;97186.00;;;;5041946;28;20223;-68
2022/05/07 12:21:13;;;;;;;5.70;5.20;;;14.40;99.90;15.40;97176.00;;;;5044492;28;20373;-68
2022/05/07 12:30:15;;;;;;;4.80;4.40;;;14.30;99.90;15.10;97173.00;;;;5038470;28;20219;-68
2022/05/07 12:33:04;;;;;;;4.83;4.37;;;14.20;99.90;15.10;97177.00;;;;5044959;28;20212;-68
2022/05/07 12:35:53;;;;;;;5.67;5.17;;;14.10;99.90;15.10;97178.00;;;;5036758;28;20240;-68
2022/05/07 12:38:43;;;;;;;5.17;4.77;;;14.20;99.90;15.30;97173.00;;;;5041377;28;20224;-69
2022/05/07 12:41:32;;;;;;;5.83;5.20;;;14.10;99.90;15.40;97179.00;;;;5057596;28;20212;-68
2022/05/07 12:44:22;;;;;;;5.40;4.73;;;14.10;99.90;15.50;97183.00;;;;5067151;28;20192;-68
2022/05/07 12:47:11;;;;;;;7.60;5.67;;;14.20;99.90;15.30;97172.00;;;;5058344;28;20196;-68
2022/05/07 12:49:59;;;;;;;5.77;5.27;;;14.20;99.90;15.20;97171.00;;;;5066911;28;20228;-68
2022/05/07 12:52:48;;;;;;;5.23;4.80;;;14.20;99.90;15.30;97159.00;;;;5070706;28;20579;-69
2022/05/07 12:55:37;;;;;;;6.50;5.90;;;14.20;99.90;15.40;97164.00;;;;5067082;28;20203;-68
2022/05/07 12:58:26;;;;;;;6.50;5.70;;;14.10;99.90;15.40;97165.00;;;;5064865;28;20609;-68
2022/05/07 13:01:16;;;;;;;6.37;5.67;;;14.20;99.90;15.40;97163.00;;;;5071084;28;20609;-67
2022/05/07 13:04:05;;;;;;;5.80;5.30;;;14.10;99.90;15.50;97159.00;;;;5061288;28;20192;-68
2022/05/07 13:06:54;;;;;;;7.33;6.43;;;14.10;99.90;15.50;97155.00;;;;5066837;28;20515;-68
2022/05/07 13:09:43;;;;;;;6.83;6.17;;;14.20;99.90;15.50;97160.00;;;;5072105;28;20219;-68
2022/05/07 13:12:40;;;;;;;6.80;6.13;;;14.20;99.90;15.40;97158.00;;;;5063254;28;20200;-68
2022/05/07 13:15:29;;;;;;;5.97;5.47;;;14.20;99.90;15.20;97156.00;;;;5063514;28;20605;-68
2022/05/07 13:18:20;;;;;;;6.20;5.60;;;14.10;99.90;15.10;97155.00;;;;5067773;28;20199;-68
2022/05/07 13:21:12;;;;;;;8.27;7.57;;;14.00;99.90;15.00;97150.00;;;;5065417;28;20475;-68
2022/05/07 13:24:01;;;;;;;8.35;7.65;;;14.00;99.90;15.20;97155.00;;;;5067729;28;20903;-68